sensor_id;sensor_type;location;lat;lon;timestamp;pressure;altitude;pressure_sealevel;temperature;humidity
53011;BME280;42803;55.762;38.084;2023-03-01T00:02:00;98696.94;;;-6.79;79.64
53011;BME280;42803;55.762;38.084;2023-03-01T00:04:31;98679.63;;;-6.69;79.63
53011;BME280;42803;55.762;38.084;2023-03-01T00:07:00;98682.06;;;-6.76;79.09
53011;BME280;42803;55.762;38.084;2023-03-01T00:09:29;98690.41;;;-6.77;79.16
53011;BME280;42803;55.762;38.084;2023-03-01T00:11:58;98684.53;;;-6.83;79.54
53011;BME280;42803;55.762;38.084;2023-03-01T00:14:27;98676.47;;;-6.93;79.54
53011;BME280;42803;55.762;38.084;2023-03-01T00:16:56;98683.59;;;-7.03;79.40
53011;BME280;42803;55.762;38.084;2023-03-01T00:19:26;98687.56;;;-7.05;80.16
53011;BME280;42803;55.762;38.084;2023-03-01T00:21:56;98679.88;;;-7.13;80.10
53011;BME280;42803;55.762;38.084;2023-03-01T00:24:25;98679.78;;;-7.20;80.00
53011;BME280;42803;55.762;38.084;2023-03-01T00:26:55;98679.56;;;-7.21;80.59
53011;BME280;42803;55.762;38.084;2023-03-01T00:29:24;98678.16;;;-7.19;80.67
53011;BME280;42803;55.762;38.084;2023-03-01T00:31:53;98679.16;;;-7.12;80.97
53011;BME280;42803;55.762;38.084;2023-03-01T00:34:23;98676.78;;;-7.10;80.61
53011;BME280;42803;55.762;38.084;2023-03-01T00:36:52;98674.06;;;-7.12;80.61
53011;BME280;42803;55.762;38.084;2023-03-01T00:39:22;98673.97;;;-7.19;80.11
53011;BME280;42803;55.762;38.084;2023-03-01T00:41:52;98681.69;;;-7.12;80.35
53011;BME280;42803;55.762;38.084;2023-03-01T00:44:21;98679.16;;;-7.12;79.94
53011;BME280;42803;55.762;38.084;2023-03-01T00:46:50;98675.19;;;-7.09;79.93
53011;BME280;42803;55.762;38.084;2023-03-01T00:49:19;98672.34;;;-7.05;79.93
53011;BME280;42803;55.762;38.084;2023-03-01T00:51:48;98672.25;;;-7.13;79.67
53011;BME280;42803;55.762;38.084;2023-03-01T00:54:17;98671.34;;;-7.13;79.74
53011;BME280;42803;55.762;38.084;2023-03-01T00:56:49;98679.78;;;-7.20;79.76
53011;BME280;42803;55.762;38.084;2023-03-01T00:59:18;98675.09;;;-7.29;80.13
53011;BME280;42803;55.762;38.084;2023-03-01T01:01:47;98668.72;;;-7.33;80.16
53011;BME280;42803;55.762;38.084;2023-03-01T01:04:17;98676.72;;;-7.30;80.18
53011;BME280;42803;55.762;38.084;2023-03-01T01:06:46;98680.81;;;-7.25;79.89
53011;BME280;42803;55.762;38.084;2023-03-01T01:09:17;98662.34;;;-7.24;79.79
53011;BME280;42803;55.762;38.084;2023-03-01T01:11:47;98662.84;;;-7.26;79.64
53011;BME280;42803;55.762;38.084;2023-03-01T01:14:19;98671.75;;;-7.23;79.03
53011;BME280;42803;55.762;38.084;2023-03-01T01:16:48;98670.34;;;-7.21;79.17
53011;BME280;42803;55.762;38.084;2023-03-01T01:19:18;98672.66;;;-7.22;79.14
53011;BME280;42803;55.762;38.084;2023-03-01T01:21:48;98671.25;;;-7.33;79.12
53011;BME280;42803;55.762;38.084;2023-03-01T01:24:18;98676.22;;;-7.27;79.29
53011;BME280;42803;55.762;38.084;2023-03-01T01:26:48;98666.28;;;-7.26;79.23
53011;BME280;42803;55.762;38.084;2023-03-01T01:29:19;98667.41;;;-7.24;79.59
53011;BME280;42803;55.762;38.084;2023-03-01T01:31:48;98670.03;;;-7.17;78.84
53011;BME280;42803;55.762;38.084;2023-03-01T01:34:19;98677.72;;;-7.09;78.58
53011;BME280;42803;55.762;38.084;2023-03-01T01:36:50;98665.56;;;-7.12;78.53
53011;BME280;42803;55.762;38.084;2023-03-01T01:39:21;98666.63;;;-6.97;77.96
53011;BME280;42803;55.762;38.084;2023-03-01T01:41:50;98665.66;;;-7.05;77.76
53011;BME280;42803;55.762;38.084;2023-03-01T01:44:22;98675.09;;;-7.17;78.06
53011;BME280;42803;55.762;38.084;2023-03-01T01:46:54;98662.81;;;-7.14;78.60
53011;BME280;42803;55.762;38.084;2023-03-01T01:49:35;98666.03;;;-7.02;78.71
53011;BME280;42803;55.762;38.084;2023-03-01T01:52:08;98678.69;;;-6.89;78.09
53011;BME280;42803;55.762;38.084;2023-03-01T01:54:42;98680.09;;;-6.91;77.81
53011;BME280;42803;55.762;38.084;2023-03-01T01:57:16;98677.78;;;-6.90;78.13
53011;BME280;42803;55.762;38.084;2023-03-01T01:59:51;98681.31;;;-6.82;78.44
53011;BME280;42803;55.762;38.084;2023-03-01T02:02:21;98680.66;;;-6.74;78.31
53011;BME280;42803;55.762;38.084;2023-03-01T02:04:55;98677.81;;;-6.70;78.34
53011;BME280;42803;55.762;38.084;2023-03-01T02:07:29;98677.56;;;-6.58;78.06
53011;BME280;42803;55.762;38.084;2023-03-01T02:09:58;98669.63;;;-6.54;77.52
53011;BME280;42803;55.762;38.084;2023-03-01T02:12:29;98666.09;;;-6.42;77.26
53011;BME280;42803;55.762;38.084;2023-03-01T02:14:59;98680.34;;;-6.50;76.55
53011;BME280;42803;55.762;38.084;2023-03-01T02:17:29;98670.75;;;-6.52;76.73
53011;BME280;42803;55.762;38.084;2023-03-01T02:20:09;98675.50;;;-6.48;76.52
53011;BME280;42803;55.762;38.084;2023-03-01T02:22:44;98669.38;;;-6.63;76.60
53011;BME280;42803;55.762;38.084;2023-03-01T02:25:25;98669.88;;;-6.66;76.93
53011;BME280;42803;55.762;38.084;2023-03-01T02:27:59;98665.06;;;-6.57;77.15
53011;BME280;42803;55.762;38.084;2023-03-01T02:30:33;98688.88;;;-6.49;76.72
53011;BME280;42803;55.762;38.084;2023-03-01T02:33:04;98679.78;;;-6.54;76.84
53011;BME280;42803;55.762;38.084;2023-03-01T02:35:34;98675.03;;;-6.58;76.69
53011;BME280;42803;55.762;38.084;2023-03-01T02:38:07;98680.53;;;-6.68;76.70
53011;BME280;42803;55.762;38.084;2023-03-01T02:40:37;98680.91;;;-6.85;76.88
53011;BME280;42803;55.762;38.084;2023-03-01T02:43:10;98685.16;;;-6.91;77.64
53011;BME280;42803;55.762;38.084;2023-03-01T02:45:48;98690.47;;;-7.02;78.28
53011;BME280;42803;55.762;38.084;2023-03-01T02:48:18;98687.63;;;-6.98;78.20
53011;BME280;42803;55.762;38.084;2023-03-01T02:51:01;98695.38;;;-7.17;78.37
53011;BME280;42803;55.762;38.084;2023-03-01T02:53:41;98680.59;;;-7.26;79.02
53011;BME280;42803;55.762;38.084;2023-03-01T02:56:14;98686.88;;;-7.30;78.98
53011;BME280;42803;55.762;38.084;2023-03-01T02:58:44;98690.63;;;-7.21;79.05
53011;BME280;42803;55.762;38.084;2023-03-01T03:01:21;98694.16;;;-7.26;78.59
53011;BME280;42803;55.762;38.084;2023-03-01T03:03:50;98704.44;;;-7.31;78.70
53011;BME280;42803;55.762;38.084;2023-03-01T03:06:19;98701.09;;;-7.25;78.84
53011;BME280;42803;55.762;38.084;2023-03-01T03:08:49;98694.59;;;-7.36;79.11
53011;BME280;42803;55.762;38.084;2023-03-01T03:11:18;98693.28;;;-7.39;79.15
53011;BME280;42803;55.762;38.084;2023-03-01T03:13:47;98697.34;;;-7.47;79.38
53011;BME280;42803;55.762;38.084;2023-03-01T03:16:17;98685.97;;;-7.56;79.58
53011;BME280;42803;55.762;38.084;2023-03-01T03:18:48;98694.78;;;-7.60;79.47
53011;BME280;42803;55.762;38.084;2023-03-01T03:21:17;98702.31;;;-7.67;80.21
53011;BME280;42803;55.762;38.084;2023-03-01T03:23:46;98698.34;;;-7.65;80.53
53011;BME280;42803;55.762;38.084;2023-03-01T03:26:15;98705.41;;;-7.75;80.71
53011;BME280;42803;55.762;38.084;2023-03-01T03:28:44;98695.91;;;-7.83;80.94
53011;BME280;42803;55.762;38.084;2023-03-01T03:31:14;98694.06;;;-7.71;81.09
53011;BME280;42803;55.762;38.084;2023-03-01T03:33:43;98698.13;;;-7.79;80.89
53011;BME280;42803;55.762;38.084;2023-03-01T03:36:16;98700.47;;;-7.93;81.12
53011;BME280;42803;55.762;38.084;2023-03-01T03:38:46;98711.56;;;-7.98;81.65
53011;BME280;42803;55.762;38.084;2023-03-01T03:41:17;98709.03;;;-7.98;81.82
53011;BME280;42803;55.762;38.084;2023-03-01T03:43:46;98716.56;;;-7.93;81.88
53011;BME280;42803;55.762;38.084;2023-03-01T03:46:16;98709.75;;;-7.99;82.14
53011;BME280;42803;55.762;38.084;2023-03-01T03:48:45;98708.84;;;-8.00;82.40
53011;BME280;42803;55.762;38.084;2023-03-01T03:51:17;98715.53;;;-8.00;82.19
53011;BME280;42803;55.762;38.084;2023-03-01T03:53:46;98708.44;;;-8.03;82.12
53011;BME280;42803;55.762;38.084;2023-03-01T03:56:15;98712.16;;;-8.06;82.17
53011;BME280;42803;55.762;38.084;2023-03-01T03:58:44;98714.56;;;-8.14;82.23
53011;BME280;42803;55.762;38.084;2023-03-01T04:01:13;98722.16;;;-8.14;82.64
53011;BME280;42803;55.762;38.084;2023-03-01T04:03:42;98717.41;;;-8.18;83.03
53011;BME280;42803;55.762;38.084;2023-03-01T04:06:15;98700.94;;;-8.08;83.25
53011;BME280;42803;55.762;38.084;2023-03-01T04:08:44;98721.28;;;-8.01;82.51
53011;BME280;42803;55.762;38.084;2023-03-01T04:11:13;98711.38;;;-8.00;82.21
53011;BME280;42803;55.762;38.084;2023-03-01T04:13:58;98710.84;;;-8.10;82.51
53011;BME280;42803;55.762;38.084;2023-03-01T04:16:27;98720.94;;;-8.23;82.61
53011;BME280;42803;55.762;38.084;2023-03-01T04:18:57;98719.81;;;-8.25;83.32
53011;BME280;42803;55.762;38.084;2023-03-01T04:21:28;98722.88;;;-8.15;83.38
53011;BME280;42803;55.762;38.084;2023-03-01T04:23:57;98721.38;;;-8.20;83.31
53011;BME280;42803;55.762;38.084;2023-03-01T04:26:26;98719.63;;;-8.14;83.47
53011;BME280;42803;55.762;38.084;2023-03-01T04:28:55;98727.16;;;-8.08;82.99
53011;BME280;42803;55.762;38.084;2023-03-01T04:31:24;98726.75;;;-8.11;83.22
53011;BME280;42803;55.762;38.084;2023-03-01T04:33:55;98726.56;;;-8.13;83.36
53011;BME280;42803;55.762;38.084;2023-03-01T04:36:28;98728.19;;;-8.00;83.12
53011;BME280;42803;55.762;38.084;2023-03-01T04:38:58;98732.25;;;-7.95;83.05
53011;BME280;42803;55.762;38.084;2023-03-01T04:41:27;98733.25;;;-8.00;82.96
53011;BME280;42803;55.762;38.084;2023-03-01T04:43:55;98739.94;;;-8.01;83.12
53011;BME280;42803;55.762;38.084;2023-03-01T04:46:27;98743.91;;;-7.90;83.19
53011;BME280;42803;55.762;38.084;2023-03-01T04:48:57;98743.59;;;-7.86;83.00
53011;BME280;42803;55.762;38.084;2023-03-01T04:51:27;98743.59;;;-7.86;82.75
53011;BME280;42803;55.762;38.084;2023-03-01T04:53:56;98738.28;;;-7.82;83.10
53011;BME280;42803;55.762;38.084;2023-03-01T04:56:25;98739.69;;;-7.71;82.92
53011;BME280;42803;55.762;38.084;2023-03-01T04:58:54;98742.44;;;-7.70;82.48
53011;BME280;42803;55.762;38.084;2023-03-01T05:01:23;98748.28;;;-7.76;82.24
53011;BME280;42803;55.762;38.084;2023-03-01T05:03:52;98746.97;;;-7.80;82.46
53011;BME280;42803;55.762;38.084;2023-03-01T05:06:22;98740.38;;;-7.85;82.85
53011;BME280;42803;55.762;38.084;2023-03-01T05:08:52;98759.22;;;-7.83;83.01
53011;BME280;42803;55.762;38.084;2023-03-01T05:11:21;98756.84;;;-7.94;83.17
53011;BME280;42803;55.762;38.084;2023-03-01T05:13:50;98760.72;;;-7.91;83.46
53011;BME280;42803;55.762;38.084;2023-03-01T05:16:22;98747.44;;;-7.95;83.35
53011;BME280;42803;55.762;38.084;2023-03-01T05:18:51;98759.97;;;-8.02;83.60
53011;BME280;42803;55.762;38.084;2023-03-01T05:21:21;98770.22;;;-8.08;83.95
53011;BME280;42803;55.762;38.084;2023-03-01T05:23:51;98763.09;;;-8.11;84.42
53011;BME280;42803;55.762;38.084;2023-03-01T05:26:20;98768.34;;;-8.09;84.27
53011;BME280;42803;55.762;38.084;2023-03-01T05:28:55;98767.63;;;-7.90;84.33
53011;BME280;42803;55.762;38.084;2023-03-01T05:31:27;98768.66;;;-7.82;83.83
53011;BME280;42803;55.762;38.084;2023-03-01T05:33:58;98771.56;;;-7.79;83.49
53011;BME280;42803;55.762;38.084;2023-03-01T05:36:27;98771.50;;;-7.73;83.49
53011;BME280;42803;55.762;38.084;2023-03-01T05:38:58;98768.19;;;-7.67;83.32
53011;BME280;42803;55.762;38.084;2023-03-01T05:41:27;98775.19;;;-7.58;83.04
53011;BME280;42803;55.762;38.084;2023-03-01T05:43:56;98778.31;;;-7.54;82.70
53011;BME280;42803;55.762;38.084;2023-03-01T05:46:25;98768.19;;;-7.41;82.49
53011;BME280;42803;55.762;38.084;2023-03-01T05:48:55;98780.47;;;-7.31;82.18
53011;BME280;42803;55.762;38.084;2023-03-01T05:51:24;98781.19;;;-7.20;81.96
53011;BME280;42803;55.762;38.084;2023-03-01T05:53:53;98786.25;;;-7.07;81.68
53011;BME280;42803;55.762;38.084;2023-03-01T05:56:23;98790.91;;;-6.97;81.10
53011;BME280;42803;55.762;38.084;2023-03-01T05:58:52;98783.59;;;-6.89;80.90
53011;BME280;42803;55.762;38.084;2023-03-01T06:01:22;98788.84;;;-6.87;80.81
53011;BME280;42803;55.762;38.084;2023-03-01T06:03:51;98789.16;;;-6.78;80.37
53011;BME280;42803;55.762;38.084;2023-03-01T06:06:20;98792.31;;;-6.74;80.19
53011;BME280;42803;55.762;38.084;2023-03-01T06:08:49;98797.16;;;-6.63;79.76
53011;BME280;42803;55.762;38.084;2023-03-01T06:11:18;98791.06;;;-6.25;79.58
53011;BME280;42803;55.762;38.084;2023-03-01T06:13:49;98798.00;;;-5.77;78.79
53011;BME280;42803;55.762;38.084;2023-03-01T06:16:18;98798.00;;;-5.77;77.71
53011;BME280;42803;55.762;38.084;2023-03-01T06:18:47;98800.63;;;-5.70;78.02
53011;BME280;42803;55.762;38.084;2023-03-01T06:21:16;98790.84;;;-5.67;77.72
53011;BME280;42803;55.762;38.084;2023-03-01T06:23:45;98802.44;;;-5.69;77.43
53011;BME280;42803;55.762;38.084;2023-03-01T06:26:14;98807.00;;;-5.66;77.73
53011;BME280;42803;55.762;38.084;2023-03-01T06:28:43;98793.78;;;-5.64;77.47
53011;BME280;42803;55.762;38.084;2023-03-01T06:31:15;98804.38;;;-5.53;77.25
53011;BME280;42803;55.762;38.084;2023-03-01T06:33:44;98808.50;;;-5.41;76.95
53011;BME280;42803;55.762;38.084;2023-03-01T06:36:13;98809.84;;;-5.50;76.55
53011;BME280;42803;55.762;38.084;2023-03-01T06:38:42;98809.53;;;-5.46;76.93
53011;BME280;42803;55.762;38.084;2023-03-01T06:41:11;98814.28;;;-5.42;76.96
53011;BME280;42803;55.762;38.084;2023-03-01T06:43:40;98814.28;;;-5.42;76.63
53011;BME280;42803;55.762;38.084;2023-03-01T06:46:09;98809.59;;;-5.39;76.53
53011;BME280;42803;55.762;38.084;2023-03-01T06:48:40;98807.78;;;-5.40;76.74
53011;BME280;42803;55.762;38.084;2023-03-01T06:51:08;98796.94;;;-5.32;76.32
53011;BME280;42803;55.762;38.084;2023-03-01T06:53:37;98815.25;;;-5.34;76.22
53011;BME280;42803;55.762;38.084;2023-03-01T06:56:07;98821.41;;;-5.40;75.90
53011;BME280;42803;55.762;38.084;2023-03-01T06:58:36;98813.44;;;-5.35;75.82
53011;BME280;42803;55.762;38.084;2023-03-01T07:01:06;98818.75;;;-5.27;75.89
53011;BME280;42803;55.762;38.084;2023-03-01T07:03:35;98817.72;;;-5.22;75.52
53011;BME280;42803;55.762;38.084;2023-03-01T07:06:06;98823.81;;;-5.34;75.36
53011;BME280;42803;55.762;38.084;2023-03-01T07:08:35;98818.63;;;-5.21;75.60
53011;BME280;42803;55.762;38.084;2023-03-01T07:11:04;98825.06;;;-5.10;75.38
53011;BME280;42803;55.762;38.084;2023-03-01T07:13:34;98828.41;;;-4.97;75.41
53011;BME280;42803;55.762;38.084;2023-03-01T07:16:03;98830.53;;;-4.73;75.43
53011;BME280;42803;55.762;38.084;2023-03-01T07:18:33;98845.00;;;-4.59;75.70
53011;BME280;42803;55.762;38.084;2023-03-01T07:21:07;98822.88;;;-4.46;75.51
53011;BME280;42803;55.762;38.084;2023-03-01T07:23:37;98830.06;;;-4.22;74.90
53011;BME280;42803;55.762;38.084;2023-03-01T07:26:06;98828.41;;;-4.22;73.98
53011;BME280;42803;55.762;38.084;2023-03-01T07:28:36;98843.19;;;-4.05;74.15
53011;BME280;42803;55.762;38.084;2023-03-01T07:31:06;98834.63;;;-4.20;74.12
53011;BME280;42803;55.762;38.084;2023-03-01T07:33:35;98838.19;;;-4.32;73.66
53011;BME280;42803;55.762;38.084;2023-03-01T07:36:07;98828.22;;;-4.30;73.72
53011;BME280;42803;55.762;38.084;2023-03-01T07:38:38;98848.53;;;-4.45;73.51
53011;BME280;42803;55.762;38.084;2023-03-01T07:41:08;98845.28;;;-4.36;74.41
53011;BME280;42803;55.762;38.084;2023-03-01T07:43:37;98849.44;;;-4.44;74.20
53011;BME280;42803;55.762;38.084;2023-03-01T07:46:06;98850.00;;;-4.39;74.47
53011;BME280;42803;55.762;38.084;2023-03-01T07:48:35;98848.00;;;-4.42;74.26
53011;BME280;42803;55.762;38.084;2023-03-01T07:51:07;98845.44;;;-4.42;74.18
53011;BME280;42803;55.762;38.084;2023-03-01T07:53:36;98848.59;;;-4.30;73.79
53011;BME280;42803;55.762;38.084;2023-03-01T07:56:07;98840.03;;;-4.24;73.94
53011;BME280;42803;55.762;38.084;2023-03-01T07:58:38;98835.72;;;-4.18;73.66
53011;BME280;42803;55.762;38.084;2023-03-01T08:01:09;98851.53;;;-4.27;73.60
53011;BME280;42803;55.762;38.084;2023-03-01T08:03:39;98843.28;;;-4.32;73.45
53011;BME280;42803;55.762;38.084;2023-03-01T08:06:10;98842.63;;;-4.17;73.93
53011;BME280;42803;55.762;38.084;2023-03-01T08:08:42;98847.03;;;-4.15;73.83
53011;BME280;42803;55.762;38.084;2023-03-01T08:11:14;98836.22;;;-4.34;74.62
53011;BME280;42803;55.762;38.084;2023-03-01T08:13:44;98843.56;;;-4.57;74.38
53011;BME280;42803;55.762;38.084;2023-03-01T08:16:18;98845.69;;;-4.68;74.85
53011;BME280;42803;55.762;38.084;2023-03-01T08:18:47;98856.91;;;-4.46;74.49
53011;BME280;42803;55.762;38.084;2023-03-01T08:21:19;98852.44;;;-4.27;74.07
53011;BME280;42803;55.762;38.084;2023-03-01T08:23:48;98857.72;;;-4.18;73.75
53011;BME280;42803;55.762;38.084;2023-03-01T08:26:18;98847.03;;;-4.01;73.83
53011;BME280;42803;55.762;38.084;2023-03-01T08:28:49;98850.00;;;-3.91;73.50
53011;BME280;42803;55.762;38.084;2023-03-01T08:31:20;98849.47;;;-3.88;73.14
53011;BME280;42803;55.762;38.084;2023-03-01T08:33:52;98854.22;;;-3.77;73.36
53011;BME280;42803;55.762;38.084;2023-03-01T08:36:26;98852.38;;;-3.78;72.91
53011;BME280;42803;55.762;38.084;2023-03-01T08:38:57;98857.31;;;-3.73;73.24
53011;BME280;42803;55.762;38.084;2023-03-01T08:41:27;98860.38;;;-3.82;72.35
53011;BME280;42803;55.762;38.084;2023-03-01T08:43:56;98867.13;;;-3.76;72.42
53011;BME280;42803;55.762;38.084;2023-03-01T08:46:27;98866.97;;;-3.63;72.60
53011;BME280;42803;55.762;38.084;2023-03-01T08:48:57;98873.56;;;-3.58;72.47
53011;BME280;42803;55.762;38.084;2023-03-01T08:51:28;98877.41;;;-3.47;72.31
53011;BME280;42803;55.762;38.084;2023-03-01T08:54:00;98865.38;;;-3.34;72.41
53011;BME280;42803;55.762;38.084;2023-03-01T08:56:30;98858.25;;;-3.44;72.17
53011;BME280;42803;55.762;38.084;2023-03-01T08:58:59;98863.19;;;-3.38;72.17
53011;BME280;42803;55.762;38.084;2023-03-01T09:01:29;98869.56;;;-3.34;71.91
53011;BME280;42803;55.762;38.084;2023-03-01T09:03:58;98855.53;;;-3.31;71.75
53011;BME280;42803;55.762;38.084;2023-03-01T09:06:30;98856.81;;;-3.41;71.76
53011;BME280;42803;55.762;38.084;2023-03-01T09:09:00;98870.84;;;-3.38;71.49
53011;BME280;42803;55.762;38.084;2023-03-01T09:11:29;98867.41;;;-3.24;71.28
53011;BME280;42803;55.762;38.084;2023-03-01T09:13:59;98866.28;;;-3.19;71.30
53011;BME280;42803;55.762;38.084;2023-03-01T09:16:28;98871.38;;;-2.90;71.50
53011;BME280;42803;55.762;38.084;2023-03-01T09:19:03;98879.06;;;-3.12;71.25
53011;BME280;42803;55.762;38.084;2023-03-01T09:21:34;98867.22;;;-3.11;71.20
53011;BME280;42803;55.762;38.084;2023-03-01T09:24:12;98875.94;;;-2.88;71.40
53011;BME280;42803;55.762;38.084;2023-03-01T09:26:42;98870.19;;;-2.42;70.84
53011;BME280;42803;55.762;38.084;2023-03-01T09:29:16;98875.41;;;-2.19;70.01
53011;BME280;42803;55.762;38.084;2023-03-01T09:31:45;98875.72;;;-2.02;69.37
53011;BME280;42803;55.762;38.084;2023-03-01T09:34:14;98871.66;;;-2.00;69.13
53011;BME280;42803;55.762;38.084;2023-03-01T09:36:48;98881.25;;;-2.13;69.16
53011;BME280;42803;55.762;38.084;2023-03-01T09:39:17;98857.09;;;-2.08;69.05
53011;BME280;42803;55.762;38.084;2023-03-01T09:41:54;98859.78;;;-1.62;68.98
53011;BME280;42803;55.762;38.084;2023-03-01T09:44:31;98868.44;;;-1.46;68.08
53011;BME280;42803;55.762;38.084;2023-03-01T09:47:02;98861.50;;;-1.47;67.00
53011;BME280;42803;55.762;38.084;2023-03-01T09:49:33;98859.34;;;-1.51;66.58
53011;BME280;42803;55.762;38.084;2023-03-01T09:52:19;98856.44;;;-1.54;66.96
53011;BME280;42803;55.762;38.084;2023-03-01T09:54:53;98858.41;;;-1.75;67.67
53011;BME280;42803;55.762;38.084;2023-03-01T09:57:32;98869.81;;;-1.94;67.01
53011;BME280;42803;55.762;38.084;2023-03-01T10:00:16;98867.22;;;-1.57;67.53
53011;BME280;42803;55.762;38.084;2023-03-01T10:02:50;98885.53;;;-1.61;66.52
53011;BME280;42803;55.762;38.084;2023-03-01T10:05:41;98866.13;;;-2.33;67.35
53011;BME280;42803;55.762;38.084;2023-03-01T10:08:38;98876.50;;;-2.17;68.66
53011;BME280;42803;55.762;38.084;2023-03-01T10:11:19;98880.47;;;-2.05;68.86
53011;BME280;42803;55.762;38.084;2023-03-01T10:13:56;98876.94;;;-1.99;67.42
53011;BME280;42803;55.762;38.084;2023-03-01T10:16:34;98874.91;;;-1.87;67.28
53011;BME280;42803;55.762;38.084;2023-03-01T10:19:10;98867.06;;;-1.96;67.87
53011;BME280;42803;55.762;38.084;2023-03-01T10:21:44;98870.31;;;-1.82;68.57
53011;BME280;42803;55.762;38.084;2023-03-01T10:24:18;98890.91;;;-1.74;68.39
53011;BME280;42803;55.762;38.084;2023-03-01T10:26:54;98877.47;;;-1.87;66.75
53011;BME280;42803;55.762;38.084;2023-03-01T10:29:29;98868.31;;;-2.29;66.98
53011;BME280;42803;55.762;38.084;2023-03-01T10:32:00;98887.56;;;-2.47;67.91
53011;BME280;42803;55.762;38.084;2023-03-01T10:34:35;98860.13;;;-2.41;68.13
53011;BME280;42803;55.762;38.084;2023-03-01T10:37:11;98875.53;;;-2.55;68.01
53011;BME280;42803;55.762;38.084;2023-03-01T10:40:09;98882.25;;;-2.56;67.09
53011;BME280;42803;55.762;38.084;2023-03-01T10:42:47;98887.31;;;-2.27;67.15
53011;BME280;42803;55.762;38.084;2023-03-01T10:45:27;98870.56;;;-2.39;66.13
53011;BME280;42803;55.762;38.084;2023-03-01T10:48:10;98895.03;;;-2.49;65.75
53011;BME280;42803;55.762;38.084;2023-03-01T10:50:42;98891.53;;;-2.42;66.42
53011;BME280;42803;55.762;38.084;2023-03-01T10:53:22;98892.25;;;-2.29;66.51
53011;BME280;42803;55.762;38.084;2023-03-01T10:56:00;98903.78;;;-2.39;66.51
53011;BME280;42803;55.762;38.084;2023-03-01T10:58:30;98917.81;;;-2.36;66.38
53011;BME280;42803;55.762;38.084;2023-03-01T11:01:02;98897.91;;;-2.31;65.60
53011;BME280;42803;55.762;38.084;2023-03-01T11:03:33;98899.16;;;-2.21;65.95
53011;BME280;42803;55.762;38.084;2023-03-01T11:06:06;98900.97;;;-2.19;66.26
53011;BME280;42803;55.762;38.084;2023-03-01T11:08:49;98901.56;;;-1.85;66.31
53011;BME280;42803;55.762;38.084;2023-03-01T11:11:41;98882.47;;;-1.73;66.37
53011;BME280;42803;55.762;38.084;2023-03-01T11:14:15;98893.09;;;-1.77;66.64
53011;BME280;42803;55.762;38.084;2023-03-01T11:17:02;98884.88;;;-1.74;67.42
53011;BME280;42803;55.762;38.084;2023-03-01T11:19:32;98874.31;;;-2.22;67.15
53011;BME280;42803;55.762;38.084;2023-03-01T11:22:03;98874.94;;;-2.46;67.79
53011;BME280;42803;55.762;38.084;2023-03-01T11:24:40;98881.84;;;-2.30;68.32
53011;BME280;42803;55.762;38.084;2023-03-01T11:27:21;98896.22;;;-2.16;67.88
53011;BME280;42803;55.762;38.084;2023-03-01T11:29:54;98903.84;;;-2.02;66.84
53011;BME280;42803;55.762;38.084;2023-03-01T11:32:28;98899.13;;;-2.13;66.87
53011;BME280;42803;55.762;38.084;2023-03-01T11:35:03;98904.56;;;-2.10;67.21
53011;BME280;42803;55.762;38.084;2023-03-01T11:37:37;98910.44;;;-2.18;67.10
53011;BME280;42803;55.762;38.084;2023-03-01T11:40:16;98913.41;;;-2.30;67.22
53011;BME280;42803;55.762;38.084;2023-03-01T11:42:59;98915.47;;;-2.49;67.70
53011;BME280;42803;55.762;38.084;2023-03-01T11:45:38;98901.03;;;-2.48;68.17
53011;BME280;42803;55.762;38.084;2023-03-01T11:48:24;98896.69;;;-2.56;68.26
53011;BME280;42803;55.762;38.084;2023-03-01T11:51:22;98898.69;;;-2.61;69.06
53011;BME280;42803;55.762;38.084;2023-03-01T11:54:09;98905.75;;;-2.37;69.31
53011;BME280;42803;55.762;38.084;2023-03-01T11:56:46;98909.94;;;-2.30;68.62
53011;BME280;42803;55.762;38.084;2023-03-01T11:59:44;98922.53;;;-2.25;67.97
53011;BME280;42803;55.762;38.084;2023-03-01T12:02:40;98913.22;;;-2.24;67.01
53011;BME280;42803;55.762;38.084;2023-03-01T12:05:23;98911.75;;;-2.22;66.26
53011;BME280;42803;55.762;38.084;2023-03-01T12:07:58;98916.09;;;-2.14;66.62
53011;BME280;42803;55.762;38.084;2023-03-01T12:10:34;98924.00;;;-2.27;67.27
53011;BME280;42803;55.762;38.084;2023-03-01T12:13:18;98918.53;;;-2.30;66.98
53011;BME280;42803;55.762;38.084;2023-03-01T12:16:19;98919.59;;;-2.21;67.56
53011;BME280;42803;55.762;38.084;2023-03-01T12:19:16;98923.59;;;-2.15;68.20
53011;BME280;42803;55.762;38.084;2023-03-01T12:22:06;98922.88;;;-2.22;67.52
53011;BME280;42803;55.762;38.084;2023-03-01T12:24:58;98921.06;;;-2.23;66.35
53011;BME280;42803;55.762;38.084;2023-03-01T12:27:54;98919.22;;;-2.09;66.56
53011;BME280;42803;55.762;38.084;2023-03-01T12:30:37;98905.44;;;-1.96;66.43
53011;BME280;42803;55.762;38.084;2023-03-01T12:33:22;98931.78;;;-2.11;65.88
53011;BME280;42803;55.762;38.084;2023-03-01T12:36:07;98931.28;;;-2.23;65.73
53011;BME280;42803;55.762;38.084;2023-03-01T12:38:41;98921.97;;;-2.22;66.56
53011;BME280;42803;55.762;38.084;2023-03-01T12:41:29;98909.94;;;-2.23;65.99
53011;BME280;42803;55.762;38.084;2023-03-01T12:44:12;98923.63;;;-2.23;66.32
53011;BME280;42803;55.762;38.084;2023-03-01T12:46:56;98915.53;;;-2.11;65.94
53011;BME280;42803;55.762;38.084;2023-03-01T12:49:35;98910.56;;;-2.03;65.61
53011;BME280;42803;55.762;38.084;2023-03-01T12:52:11;98898.09;;;-2.37;65.14
53011;BME280;42803;55.762;38.084;2023-03-01T12:54:44;98922.22;;;-2.42;65.55
53011;BME280;42803;55.762;38.084;2023-03-01T12:57:20;98887.19;;;-2.50;65.86
53011;BME280;42803;55.762;38.084;2023-03-01T13:00:02;98913.09;;;-2.47;66.24
53011;BME280;42803;55.762;38.084;2023-03-01T13:02:41;98912.06;;;-2.71;66.73
53011;BME280;42803;55.762;38.084;2023-03-01T13:05:26;98913.88;;;-2.91;66.74
53011;BME280;42803;55.762;38.084;2023-03-01T13:08:02;98915.72;;;-3.04;67.16
53011;BME280;42803;55.762;38.084;2023-03-01T13:10:35;98904.56;;;-2.83;67.12
53011;BME280;42803;55.762;38.084;2023-03-01T13:13:18;98912.59;;;-2.73;67.05
53011;BME280;42803;55.762;38.084;2023-03-01T13:15:48;98916.03;;;-2.65;66.90
53011;BME280;42803;55.762;38.084;2023-03-01T13:18:32;98903.63;;;-2.62;66.43
53011;BME280;42803;55.762;38.084;2023-03-01T13:21:04;98914.41;;;-2.58;67.31